createdAt,value
2019-05-30T00:00:29.659Z,96352.39
2019-05-30T00:01:34.736Z,96352.77
2019-05-30T00:02:38.289Z,96358.59
2019-05-30T00:03:42.676Z,96355.72
2019-05-30T00:04:46.288Z,96359.28
2019-05-30T00:05:50.384Z,96346.66
2019-05-30T00:06:54.368Z,96354.31
2019-05-30T00:07:58.555Z,96353.50
2019-05-30T00:09:03.235Z,96357.66
2019-05-30T00:10:08.097Z,96355.23
2019-05-30T00:11:11.608Z,96354.52
2019-05-30T00:12:15.670Z,96353.92
2019-05-30T00:13:19.214Z,96361.50
2019-05-30T00:14:23.245Z,96363.05
2019-05-30T00:15:26.698Z,96362.05
2019-05-30T00:16:31.304Z,96359.97
2019-05-30T00:17:34.880Z,96359.80
2019-05-30T00:18:39.032Z,96367.98
2019-05-30T00:19:42.560Z,96362.05
2019-05-30T00:20:46.606Z,96360.20
2019-05-30T00:21:50.074Z,96364.71
2019-05-30T00:22:54.638Z,96361.73
2019-05-30T00:23:58.052Z,96362.05
2019-05-30T00:25:02.424Z,96367.34
2019-05-30T00:26:06.019Z,96363.23
2019-05-30T00:27:10.158Z,96367.73
2019-05-30T00:28:13.675Z,96368.64
2019-05-30T00:29:17.776Z,96371.65
2019-05-30T00:30:24.715Z,96366.37
2019-05-30T00:31:27.121Z,96368.62
2019-05-30T00:32:30.666Z,96365.41
2019-05-30T00:33:34.768Z,96364.30
2019-05-30T00:34:38.224Z,96365.06
2019-05-30T00:35:42.396Z,96362.61
2019-05-30T00:36:45.800Z,96362.27
2019-05-30T00:37:49.947Z,96363.28
2019-05-30T00:38:53.472Z,96367.26
2019-05-30T00:39:57.863Z,96365.73
2019-05-30T00:41:02.082Z,96366.08
2019-05-30T00:42:06.303Z,96362.82
2019-05-30T00:43:09.868Z,96362.98
2019-05-30T00:44:13.896Z,96365.98
2019-05-30T00:45:20.763Z,96360.97
2019-05-30T00:46:23.440Z,96364.95
2019-05-30T00:47:27.097Z,96360.19
2019-05-30T00:48:31.067Z,96361.45
2019-05-30T00:49:34.645Z,96363.16
2019-05-30T00:50:38.553Z,96358.52
2019-05-30T00:51:42.018Z,96360.44
2019-05-30T00:52:46.138Z,96356.88
2019-05-30T00:53:49.664Z,96356.72
2019-05-30T00:54:53.688Z,96360.46
2019-05-30T00:55:58.483Z,96358.41
2019-05-30T00:57:02.802Z,96356.70
2019-05-30T00:58:07.472Z,96353.09
2019-05-30T00:59:11.610Z,96362.70
2019-05-30T01:00:15.225Z,96359.03
2019-05-30T01:01:19.465Z,96357.32
2019-05-30T01:02:23.015Z,96357.66
2019-05-30T01:03:27.102Z,96357.66
2019-05-30T01:04:30.613Z,96363.15
2019-05-30T01:05:34.795Z,96357.80
2019-05-30T01:06:38.410Z,96358.94
2019-05-30T01:07:42.572Z,96362.70
2019-05-30T01:08:46.162Z,96360.05
2019-05-30T01:09:50.288Z,96356.95
2019-05-30T01:10:53.732Z,96359.20
2019-05-30T01:11:59.134Z,96361.30
2019-05-30T01:13:03.140Z,96361.01
2019-05-30T01:14:07.574Z,96361.32
2019-05-30T01:15:11.829Z,96359.22
2019-05-30T01:16:15.878Z,96357.34
2019-05-30T01:17:20.409Z,96358.42
2019-05-30T01:18:24.484Z,96359.75
2019-05-30T01:19:27.990Z,96355.05
2019-05-30T01:20:32.248Z,96360.32
2019-05-30T01:21:35.830Z,96356.80
2019-05-30T01:22:39.956Z,96352.10
2019-05-30T01:23:45.967Z,96357.23
2019-05-30T01:24:50.108Z,96354.58
2019-05-30T01:25:53.547Z,96365.67
2019-05-30T01:26:57.669Z,96357.92
2019-05-30T01:28:01.610Z,96357.69
2019-05-30T01:29:05.801Z,96352.95
2019-05-30T01:30:10.101Z,96356.90
2019-05-30T01:31:14.212Z,96354.16
2019-05-30T01:32:29.670Z,96357.90
2019-05-30T01:33:33.699Z,96356.03
2019-05-30T01:34:37.156Z,96358.82
2019-05-30T01:35:41.277Z,96358.95
2019-05-30T01:36:44.876Z,96353.63
2019-05-30T01:37:49.231Z,96356.84
2019-05-30T01:38:52.850Z,96355.30
2019-05-30T01:39:57.738Z,96354.13
2019-05-30T01:41:02.330Z,96359.16
2019-05-30T01:42:06.590Z,96357.57
2019-05-30T01:43:10.138Z,96356.35
2019-05-30T01:44:14.418Z,96356.88
2019-05-30T01:45:18.026Z,96352.98
2019-05-30T01:46:22.133Z,96354.09
2019-05-30T01:47:25.745Z,96354.12
2019-05-30T01:48:31.173Z,96350.93
2019-05-30T01:49:34.679Z,96349.09
2019-05-30T01:50:38.720Z,96348.12
2019-05-30T01:51:42.248Z,96353.38
2019-05-30T01:52:46.259Z,96354.85
2019-05-30T01:53:49.743Z,96348.67
2019-05-30T01:54:53.842Z,96357.73
2019-05-30T01:55:58.498Z,96352.41
2019-05-30T01:57:02.674Z,96352.77
2019-05-30T01:58:07.257Z,96352.80
2019-05-30T01:59:11.415Z,96348.52
2019-05-30T02:00:21.282Z,96352.06
2019-05-30T02:01:25.424Z,96357.14
2019-05-30T02:02:27.943Z,96350.93
2019-05-30T02:03:32.242Z,96348.12
2019-05-30T02:04:35.785Z,96353.05
2019-05-30T02:05:39.953Z,96351.78
2019-05-30T02:06:43.415Z,96349.30
2019-05-30T02:07:47.519Z,96350.25
2019-05-30T02:08:51.025Z,96349.30
2019-05-30T02:09:55.203Z,96353.78
2019-05-30T02:10:59.170Z,96351.67
2019-05-30T02:12:03.712Z,96350.53
2019-05-30T02:13:07.566Z,96349.87
2019-05-30T02:14:11.665Z,96347.75
2019-05-30T02:15:15.450Z,96344.55
2019-05-30T02:16:19.606Z,96349.87
2019-05-30T02:17:23.442Z,96355.13
2019-05-30T02:18:27.565Z,96351.73
2019-05-30T02:19:31.081Z,96354.91
2019-05-30T02:20:35.254Z,96359.32
2019-05-30T02:21:38.768Z,96356.23
2019-05-30T02:22:42.812Z,96355.06
2019-05-30T02:23:46.278Z,96356.66
2019-05-30T02:24:50.335Z,96359.95
2019-05-30T02:25:53.850Z,96359.86
2019-05-30T02:26:57.883Z,96356.16
2019-05-30T02:28:02.067Z,96361.28
2019-05-30T02:29:06.275Z,96360.36
2019-05-30T02:30:12.609Z,96363.45
2019-05-30T02:31:37.172Z,96362.14
2019-05-30T02:32:21.765Z,96362.47
2019-05-30T02:33:25.827Z,96361.83
2019-05-30T02:34:29.338Z,96361.81
2019-05-30T02:35:33.433Z,96356.03
2019-05-30T02:36:36.916Z,96360.84
2019-05-30T02:37:41.147Z,96359.64
2019-05-30T02:38:44.729Z,96355.08
2019-05-30T02:39:48.823Z,96359.33
2019-05-30T02:40:52.440Z,96362.57
2019-05-30T02:41:56.554Z,96357.90
2019-05-30T02:43:01.224Z,96355.70
2019-05-30T02:44:07.565Z,96360.63
2019-05-30T02:45:12.573Z,96357.69
2019-05-30T02:46:17.190Z,96363.66
2019-05-30T02:47:22.518Z,96361.03
2019-05-30T02:48:26.380Z,96364.39
2019-05-30T02:49:30.831Z,96366.44
2019-05-30T02:50:34.858Z,96363.26
2019-05-30T02:51:38.624Z,96365.34
2019-05-30T02:52:42.828Z,96363.81
2019-05-30T02:53:46.329Z,96366.29
2019-05-30T02:54:50.351Z,96365.70
2019-05-30T02:55:53.792Z,96358.55
2019-05-30T02:56:57.849Z,96362.09
2019-05-30T02:58:01.385Z,96360.70
2019-05-30T02:59:06.260Z,96360.05
2019-05-30T03:00:16.597Z,96364.59
2019-05-30T03:01:17.094Z,96362.57
2019-05-30T03:02:20.629Z,96360.95
2019-05-30T03:03:24.714Z,96359.58
2019-05-30T03:04:28.150Z,96363.48
2019-05-30T03:05:32.257Z,96368.78
2019-05-30T03:06:36.550Z,96371.56
2019-05-30T03:07:40.868Z,96365.66
2019-05-30T03:08:44.412Z,96370.25
2019-05-30T03:09:48.598Z,96372.18
2019-05-30T03:10:52.477Z,96374.30
2019-05-30T03:11:56.711Z,96378.86
2019-05-30T03:13:01.809Z,96380.17
2019-05-30T03:14:12.077Z,96377.73
2019-05-30T03:15:15.475Z,96375.71
2019-05-30T03:16:19.014Z,96375.89
2019-05-30T03:17:22.730Z,96375.31
2019-05-30T03:18:26.862Z,96379.05
2019-05-30T03:19:30.455Z,96379.05
2019-05-30T03:20:34.711Z,96372.69
2019-05-30T03:21:38.306Z,96379.16
2019-05-30T03:22:42.492Z,96377.04
2019-05-30T03:23:45.996Z,96384.38
2019-05-30T03:24:50.341Z,96376.67
2019-05-30T03:25:53.897Z,96379.70
2019-05-30T03:26:57.940Z,96379.55
2019-05-30T03:28:02.747Z,96383.20
2019-05-30T03:29:09.506Z,96381.67
2019-05-30T03:30:25.742Z,96384.30
2019-05-30T03:31:28.028Z,96387.45
2019-05-30T03:33:40.926Z,96382.59
2019-05-30T03:34:37.289Z,96383.15
2019-05-30T03:35:43.709Z,96385.30
2019-05-30T03:36:46.897Z,96388.27
2019-05-30T03:37:51.062Z,96386.18
2019-05-30T03:38:54.625Z,96385.84
2019-05-30T03:39:58.728Z,96392.20
2019-05-30T03:41:02.314Z,96386.80
2019-05-30T03:42:07.092Z,96390.99
2019-05-30T03:43:13.249Z,96399.33
2019-05-30T03:44:17.559Z,96399.75
2019-05-30T03:45:21.742Z,96394.68
2019-05-30T03:46:31.428Z,96400.34
2019-05-30T03:47:37.993Z,96397.16
2019-05-30T03:48:45.074Z,96397.34
2019-05-30T03:49:50.831Z,96396.91
2019-05-30T03:50:56.725Z,96396.61
2019-05-30T03:52:05.048Z,96398.17
2019-05-30T03:53:11.582Z,96400.04
2019-05-30T03:54:16.073Z,96397.96
2019-05-30T03:55:22.041Z,96399.28
2019-05-30T03:56:33.856Z,96397.20
2019-05-30T03:57:43.736Z,96395.73
2019-05-30T03:59:01.830Z,96402.92
2019-05-30T04:00:25.582Z,96401.55
2019-05-30T04:01:49.907Z,96394.53
2019-05-30T04:02:59.279Z,96405.23
2019-05-30T04:04:09.210Z,96404.75
2019-05-30T04:05:19.190Z,96402.16
2019-05-30T04:06:28.104Z,96401.86
2019-05-30T04:07:35.294Z,96400.42
2019-05-30T04:08:41.006Z,96406.05
2019-05-30T04:09:47.913Z,96415.27
2019-05-30T04:10:54.545Z,96408.69
2019-05-30T04:12:24.198Z,96412.91
2019-05-30T04:13:52.959Z,96417.78
2019-05-30T04:15:00.032Z,96410.59
2019-05-30T04:16:03.749Z,96415.58
2019-05-30T04:17:09.930Z,96416.50
2019-05-30T04:18:16.065Z,96420.81
2019-05-30T04:19:20.274Z,96418.03
2019-05-30T04:20:23.808Z,96427.67
2019-05-30T04:21:27.909Z,96426.97
2019-05-30T04:22:31.530Z,96426.61
2019-05-30T04:23:35.571Z,96428.69
2019-05-30T04:24:39.079Z,96425.25
2019-05-30T04:25:43.259Z,96432.42
2019-05-30T04:26:46.719Z,96432.60
2019-05-30T04:27:50.750Z,96433.55
2019-05-30T04:28:54.207Z,96433.95
2019-05-30T04:29:58.236Z,96431.47
2019-05-30T04:31:01.744Z,96430.70
2019-05-30T04:32:05.945Z,96435.05
2019-05-30T04:33:19.346Z,96442.37
2019-05-30T04:34:16.853Z,96433.42
2019-05-30T04:35:20.516Z,96442.88
2019-05-30T04:36:24.544Z,96442.16
2019-05-30T04:37:28.081Z,96439.52
2019-05-30T04:38:32.243Z,96438.36
2019-05-30T04:39:35.696Z,96441.35
2019-05-30T04:40:39.723Z,96445.91
2019-05-30T04:41:43.309Z,96441.45
2019-05-30T04:42:47.628Z,96439.58
2019-05-30T04:43:51.165Z,96441.75
2019-05-30T04:44:55.257Z,96446.50
2019-05-30T04:45:58.717Z,96439.58
2019-05-30T04:47:02.769Z,96449.22
2019-05-30T04:48:07.149Z,96447.03
2019-05-30T04:49:12.382Z,96446.38
2019-05-30T04:50:18.590Z,96452.70
2019-05-30T04:51:22.359Z,96450.03
2019-05-30T04:52:25.878Z,96448.61
2019-05-30T04:53:29.935Z,96447.41
2019-05-30T04:54:33.383Z,96448.25
2019-05-30T04:55:37.483Z,96448.97
2019-05-30T04:56:40.923Z,96450.78
2019-05-30T04:57:45.095Z,96455.13
2019-05-30T04:58:48.665Z,96461.20
2019-05-30T04:59:52.777Z,96459.66
2019-05-30T05:00:56.279Z,96458.16
2019-05-30T05:02:00.304Z,96456.12
2019-05-30T05:03:05.383Z,96459.15
2019-05-30T05:04:11.348Z,96457.80
2019-05-30T05:05:20.922Z,96464.20
2019-05-30T05:06:21.981Z,96462.45
2019-05-30T05:07:25.612Z,96465.73
2019-05-30T05:08:29.642Z,96468.86
2019-05-30T05:09:33.189Z,96463.81
2019-05-30T05:10:37.295Z,96466.23
2019-05-30T05:11:40.804Z,96461.99
2019-05-30T05:12:44.854Z,96462.91
2019-05-30T05:13:48.403Z,96460.31
2019-05-30T05:14:52.510Z,96463.56
2019-05-30T05:15:55.965Z,96466.63
2019-05-30T05:16:59.991Z,96466.08
2019-05-30T05:18:03.462Z,96465.70
2019-05-30T05:19:08.877Z,96463.99
2019-05-30T05:20:13.369Z,96460.26
2019-05-30T05:21:17.389Z,96472.92
2019-05-30T05:22:21.204Z,96469.89
2019-05-30T05:23:25.270Z,96470.11
2019-05-30T05:24:28.740Z,96465.13
2019-05-30T05:25:32.862Z,96468.56
2019-05-30T05:26:36.310Z,96468.16
2019-05-30T05:27:40.348Z,96470.02
2019-05-30T05:28:43.821Z,96470.42
2019-05-30T05:29:47.941Z,96464.72
2019-05-30T05:30:51.419Z,96470.33
2019-05-30T05:31:55.561Z,96473.02
2019-05-30T05:32:59.014Z,96463.41
2019-05-30T05:34:03.154Z,96471.70
2019-05-30T05:35:08.471Z,96471.80
2019-05-30T05:36:12.512Z,96470.77
2019-05-30T05:37:17.029Z,96476.73
2019-05-30T05:38:22.307Z,96475.02
2019-05-30T05:39:25.939Z,96477.74
2019-05-30T05:40:30.419Z,96472.26
2019-05-30T05:41:34.094Z,96476.36
2019-05-30T05:42:38.202Z,96472.63
2019-05-30T05:43:41.694Z,96473.94
2019-05-30T05:44:45.718Z,96471.41
2019-05-30T05:45:49.215Z,96471.47
2019-05-30T05:46:53.241Z,96478.78
2019-05-30T05:47:56.714Z,96472.20
2019-05-30T05:49:00.734Z,96472.08
2019-05-30T05:50:05.452Z,96478.70
2019-05-30T05:51:09.547Z,96478.36
2019-05-30T05:52:13.142Z,96480.41
2019-05-30T05:53:17.164Z,96478.02
2019-05-30T05:54:20.936Z,96477.28
2019-05-30T05:55:25.059Z,96480.66
2019-05-30T05:56:29.132Z,96477.53
2019-05-30T05:57:33.239Z,96476.88
2019-05-30T05:58:36.765Z,96480.70
2019-05-30T05:59:40.839Z,96486.38
2019-05-30T06:00:44.350Z,96484.31
2019-05-30T06:01:48.154Z,96480.20
2019-05-30T06:02:51.581Z,96481.53
2019-05-30T06:04:11.683Z,96478.66
2019-05-30T06:05:00.826Z,96482.45
2019-05-30T06:06:05.011Z,96482.84
2019-05-30T06:07:08.518Z,96484.77
2019-05-30T06:08:12.617Z,96487.09
2019-05-30T06:09:16.480Z,96486.56
2019-05-30T06:10:21.771Z,96487.67
2019-05-30T06:11:25.442Z,96489.20
2019-05-30T06:12:29.580Z,96491.09
2019-05-30T06:13:33.025Z,96486.28
2019-05-30T06:14:37.127Z,96494.55
2019-05-30T06:15:40.716Z,96494.45
2019-05-30T06:16:44.768Z,96495.68
2019-05-30T06:17:48.315Z,96493.63
2019-05-30T06:18:52.345Z,96490.98
2019-05-30T06:19:55.855Z,96490.66
2019-05-30T06:20:59.954Z,96489.55
2019-05-30T06:22:03.808Z,96499.36
2019-05-30T06:23:07.899Z,96491.89
2019-05-30T06:24:11.345Z,96498.72
2019-05-30T06:25:15.809Z,96499.11
2019-05-30T06:26:19.899Z,96499.89
2019-05-30T06:27:24.086Z,96499.36
2019-05-30T06:28:28.224Z,96499.75
2019-05-30T06:29:32.900Z,96502.94
2019-05-30T06:30:36.490Z,96495.40
2019-05-30T06:31:40.535Z,96500.70
2019-05-30T06:32:44.149Z,96502.29
2019-05-30T06:33:48.188Z,96502.13
2019-05-30T06:34:52.097Z,96506.86
2019-05-30T06:35:56.226Z,96505.94
2019-05-30T06:37:00.028Z,96506.33
2019-05-30T06:38:04.227Z,96508.22
2019-05-30T06:39:08.865Z,96501.11
2019-05-30T06:40:13.737Z,96499.41
2019-05-30T06:41:17.372Z,96505.45
2019-05-30T06:42:21.779Z,96502.44
2019-05-30T06:43:26.148Z,96503.97
2019-05-30T06:44:30.303Z,96505.09
2019-05-30T06:45:33.888Z,96502.61
2019-05-30T06:46:38.129Z,96509.54
2019-05-30T06:47:41.670Z,96501.83
2019-05-30T06:48:45.764Z,96508.05
2019-05-30T06:49:49.556Z,96506.22
2019-05-30T06:50:53.645Z,96506.62
2019-05-30T06:51:57.535Z,96514.39
2019-05-30T06:53:01.627Z,96503.48
2019-05-30T06:54:05.330Z,96508.81
2019-05-30T06:55:09.851Z,96514.27
2019-05-30T06:56:13.444Z,96504.77
2019-05-30T06:57:17.838Z,96512.89
2019-05-30T06:58:40.089Z,96503.27
2019-05-30T06:59:27.704Z,96508.81
2019-05-30T07:00:32.940Z,96510.73
2019-05-30T07:01:37.234Z,96506.23
2019-05-30T07:02:40.690Z,96454.91
2019-05-30T07:03:45.232Z,96504.74
2019-05-30T07:04:52.154Z,96506.23
2019-05-30T07:05:54.984Z,96505.17
2019-05-30T07:06:59.008Z,96503.48
2019-05-30T07:08:03.143Z,96509.14
2019-05-30T07:09:08.446Z,96510.64
2019-05-30T07:10:13.623Z,96509.91
2019-05-30T07:11:18.064Z,96504.63
2019-05-30T07:12:22.909Z,96507.70
2019-05-30T07:13:27.288Z,96509.59
2019-05-30T07:14:31.552Z,96503.58
2019-05-30T07:15:35.104Z,96505.48
2019-05-30T07:16:39.236Z,96506.61
2019-05-30T07:17:42.716Z,96510.99
2019-05-30T07:18:46.768Z,96507.80
2019-05-30T07:19:50.214Z,96512.70
2019-05-30T07:20:54.412Z,96509.33
2019-05-30T07:21:58.108Z,96508.94
2019-05-30T07:23:02.255Z,96506.44
2019-05-30T07:24:05.926Z,96507.16
2019-05-30T07:25:10.879Z,96511.11
2019-05-30T07:26:14.464Z,96510.69
2019-05-30T07:27:18.561Z,96507.70
2019-05-30T07:28:22.183Z,96514.53
2019-05-30T07:29:26.368Z,96514.95
2019-05-30T07:30:30.073Z,96509.33
2019-05-30T07:31:34.431Z,96512.77
2019-05-30T07:32:37.930Z,96515.25
2019-05-30T07:33:42.027Z,96513.96
2019-05-30T07:34:46.189Z,96519.84
2019-05-30T07:35:50.384Z,96514.93
2019-05-30T07:36:54.147Z,96516.05
2019-05-30T07:37:58.239Z,96515.11
2019-05-30T07:39:01.991Z,96515.11
2019-05-30T07:40:10.331Z,96521.72
2019-05-30T07:41:13.913Z,96520.02
2019-05-30T07:42:18.126Z,96515.13
2019-05-30T07:43:24.775Z,96519.69
2019-05-30T07:44:28.727Z,96518.34
2019-05-30T07:45:33.158Z,96516.61
2019-05-30T07:46:37.355Z,96522.03
2019-05-30T07:47:41.034Z,96520.71
2019-05-30T07:48:45.129Z,96521.12
2019-05-30T07:49:48.582Z,96517.37
2019-05-30T07:50:52.845Z,96510.37
2019-05-30T07:51:56.615Z,96517.55
2019-05-30T07:53:00.925Z,96521.12
2019-05-30T07:54:05.130Z,96521.86
2019-05-30T07:55:10.888Z,96520.16
2019-05-30T07:56:14.396Z,96520.02
2019-05-30T07:57:18.530Z,96520.78
2019-05-30T07:58:22.028Z,96521.54
2019-05-30T07:59:26.429Z,96519.25
2019-05-30T08:00:31.328Z,96522.27
2019-05-30T08:01:35.516Z,96520.19
2019-05-30T08:02:39.319Z,96524.53
2019-05-30T08:03:43.420Z,96525.69
2019-05-30T08:04:47.179Z,96519.42
2019-05-30T08:05:51.193Z,96523.59
2019-05-30T08:06:54.844Z,96523.63
2019-05-30T08:07:59.080Z,96528.01
2019-05-30T08:09:02.801Z,96522.89
2019-05-30T08:10:09.492Z,96527.24
2019-05-30T08:11:13.138Z,96526.89
2019-05-30T08:12:17.425Z,96528.39
2019-05-30T08:13:21.025Z,96521.59
2019-05-30T08:14:25.167Z,96525.53
2019-05-30T08:15:29.284Z,96524.22
2019-05-30T08:16:33.567Z,96520.02
2019-05-30T08:17:37.918Z,96523.25
2019-05-30T08:18:42.069Z,96521.95
2019-05-30T08:19:45.669Z,96518.39
2019-05-30T08:20:49.827Z,96518.59
2019-05-30T08:21:55.017Z,96522.17
2019-05-30T08:22:59.196Z,96523.14
2019-05-30T08:24:02.824Z,96523.38
2019-05-30T08:25:07.984Z,96523.01
2019-05-30T08:26:11.567Z,96486.84
2019-05-30T08:27:15.666Z,96519.42
2019-05-30T08:28:19.885Z,96523.97
2019-05-30T08:29:24.060Z,96521.31
2019-05-30T08:30:28.302Z,96527.95
2019-05-30T08:31:32.524Z,96522.47
2019-05-30T08:32:36.934Z,96523.22
2019-05-30T08:33:41.254Z,96524.53
2019-05-30T08:34:44.916Z,96520.56
2019-05-30T08:35:50.382Z,96522.10
2019-05-30T08:36:54.085Z,96518.30
2019-05-30T08:37:58.206Z,96523.23
2019-05-30T08:39:01.722Z,96522.08
2019-05-30T08:40:08.855Z,96518.48
2019-05-30T08:41:12.326Z,96525.87
2019-05-30T08:42:16.473Z,96522.45
2019-05-30T08:43:20.049Z,96521.12
2019-05-30T08:44:24.240Z,96517.52
2019-05-30T08:45:28.048Z,96520.94
2019-05-30T08:46:32.298Z,96516.96
2019-05-30T08:47:36.074Z,96517.16
2019-05-30T08:48:40.418Z,96519.62
2019-05-30T08:49:44.011Z,96513.78
2019-05-30T08:50:48.188Z,96511.13
2019-05-30T08:51:51.882Z,96509.59
2019-05-30T08:52:56.008Z,96518.30
2019-05-30T08:53:59.605Z,96512.63
2019-05-30T08:55:04.378Z,96511.12
2019-05-30T08:56:08.118Z,96511.51
2019-05-30T08:57:12.273Z,96513.97
2019-05-30T08:58:15.870Z,96515.47
2019-05-30T08:59:20.003Z,96518.67
2019-05-30T09:00:25.411Z,96510.91
2019-05-30T09:01:29.629Z,96515.28
2019-05-30T09:02:33.147Z,96524.55
2019-05-30T09:03:38.448Z,96518.11
2019-05-30T09:04:42.092Z,96523.03
2019-05-30T09:05:59.063Z,96518.50
2019-05-30T09:06:51.368Z,96518.67
2019-05-30T09:07:55.539Z,96516.98
2019-05-30T09:08:59.066Z,96521.53
2019-05-30T09:10:03.182Z,96522.84
2019-05-30T09:11:06.914Z,96522.10
2019-05-30T09:12:11.056Z,96516.22
2019-05-30T09:13:14.508Z,96519.80
2019-05-30T09:14:18.641Z,96517.54
2019-05-30T09:15:22.734Z,96519.05
2019-05-30T09:16:26.955Z,96512.45
2019-05-30T09:17:30.546Z,96517.55
2019-05-30T09:18:34.724Z,96519.23
2019-05-30T09:19:39.748Z,96513.94
2019-05-30T09:20:45.266Z,96512.78
2019-05-30T09:21:48.930Z,96510.69
2019-05-30T09:22:53.279Z,96516.00
2019-05-30T09:24:00.900Z,96516.18
2019-05-30T09:25:02.669Z,96508.38
2019-05-30T09:26:06.330Z,96507.67
2019-05-30T09:27:10.485Z,96507.48
2019-05-30T09:28:14.081Z,96512.41
2019-05-30T09:29:18.235Z,96511.30
2019-05-30T09:30:22.184Z,96513.95
2019-05-30T09:31:26.348Z,96510.18
2019-05-30T09:32:29.899Z,96514.34
2019-05-30T09:33:34.001Z,96517.17
2019-05-30T09:34:38.336Z,96515.86
2019-05-30T09:35:43.334Z,96511.69
2019-05-30T09:36:47.018Z,96515.46
2019-05-30T09:37:51.104Z,96520.77
2019-05-30T09:38:54.668Z,96519.05
2019-05-30T09:39:58.894Z,96516.03
2019-05-30T09:41:02.516Z,96511.50
2019-05-30T09:42:06.900Z,96509.03
2019-05-30T09:43:10.360Z,96512.83
2019-05-30T09:44:14.662Z,96512.25
2019-05-30T09:45:19.030Z,96516.03
2019-05-30T09:46:23.684Z,96511.10
2019-05-30T09:47:27.196Z,96521.53
2019-05-30T09:48:31.821Z,96514.32
2019-05-30T09:49:35.455Z,96521.31
2019-05-30T09:50:42.024Z,96519.05
2019-05-30T09:51:45.244Z,96516.78
2019-05-30T09:52:49.541Z,96513.21
2019-05-30T09:53:53.148Z,96516.03
2019-05-30T09:54:57.255Z,96515.66
2019-05-30T09:56:00.770Z,96520.02
2019-05-30T09:57:04.952Z,96519.81
2019-05-30T09:58:08.544Z,96514.69
2019-05-30T09:59:12.840Z,96511.84
2019-05-30T10:00:18.646Z,96512.98
2019-05-30T10:01:22.904Z,96514.09
2019-05-30T10:02:26.360Z,96516.00
2019-05-30T10:03:30.522Z,96511.09
2019-05-30T10:04:34.450Z,96511.83
2019-05-30T10:05:38.697Z,96513.91
2019-05-30T10:06:43.582Z,96517.47
2019-05-30T10:07:49.239Z,96519.75
2019-05-30T10:08:53.120Z,96517.48
2019-05-30T10:09:57.253Z,96512.01
2019-05-30T10:11:00.855Z,96514.84
2019-05-30T10:12:05.037Z,96506.47
2019-05-30T10:13:08.554Z,96511.02
2019-05-30T10:14:12.766Z,96506.84
2019-05-30T10:15:16.892Z,96511.56
2019-05-30T10:16:21.074Z,96512.72
2019-05-30T10:17:24.587Z,96512.91
2019-05-30T10:18:28.779Z,96508.17
2019-05-30T10:19:32.314Z,96509.49
2019-05-30T10:20:36.419Z,96513.45
2019-05-30T10:21:39.969Z,96503.44
2019-05-30T10:22:44.739Z,96510.45
2019-05-30T10:23:49.515Z,96507.59
2019-05-30T10:24:53.861Z,96510.00
2019-05-30T10:25:57.669Z,96511.11
2019-05-30T10:27:01.913Z,96504.52
2019-05-30T10:28:05.509Z,96512.27
2019-05-30T10:29:09.594Z,96512.63
2019-05-30T10:30:13.664Z,96509.73
2019-05-30T10:31:17.842Z,96504.00
2019-05-30T10:32:21.458Z,96503.34
2019-05-30T10:33:25.727Z,96505.59
2019-05-30T10:34:29.435Z,96503.30
2019-05-30T10:35:33.542Z,96501.25
2019-05-30T10:36:44.137Z,96500.85
2019-05-30T10:37:45.308Z,96500.81
2019-05-30T10:38:49.984Z,96506.05
2019-05-30T10:39:57.810Z,96502.02
2019-05-30T10:40:59.763Z,96506.72
2019-05-30T10:42:03.943Z,96505.16
2019-05-30T10:43:08.540Z,96500.20
2019-05-30T10:44:12.812Z,96496.30
2019-05-30T10:45:16.661Z,96498.60
2019-05-30T10:46:22.328Z,96491.95
2019-05-30T10:47:25.769Z,96493.81
2019-05-30T10:48:30.056Z,96446.91
2019-05-30T10:49:34.991Z,96491.47
2019-05-30T10:50:39.550Z,96487.59
2019-05-30T10:51:43.133Z,96486.72
2019-05-30T10:52:47.319Z,96491.73
2019-05-30T10:53:52.362Z,96488.15
2019-05-30T10:54:56.910Z,96487.23
2019-05-30T10:56:00.494Z,96484.78
2019-05-30T10:57:04.618Z,96480.66
2019-05-30T10:58:08.207Z,96486.10
2019-05-30T10:59:12.621Z,96482.84
2019-05-30T11:00:18.313Z,96479.31
2019-05-30T11:01:22.491Z,96486.34
2019-05-30T11:02:26.080Z,96488.02
2019-05-30T11:03:30.669Z,96487.09
2019-05-30T11:04:34.239Z,96483.62
2019-05-30T11:05:38.524Z,96489.13
2019-05-30T11:07:10.622Z,96482.84
2019-05-30T11:08:06.396Z,96479.02
2019-05-30T11:09:10.470Z,96473.11
2019-05-30T11:10:17.612Z,96474.91
2019-05-30T11:11:21.228Z,96477.88
2019-05-30T11:12:25.449Z,96479.75
2019-05-30T11:13:29.036Z,96474.62
2019-05-30T11:14:33.224Z,96477.58
2019-05-30T11:15:36.947Z,96478.34
2019-05-30T11:16:41.229Z,96468.61
2019-05-30T11:17:44.822Z,96476.69
2019-05-30T11:18:50.984Z,96471.27
2019-05-30T11:19:54.248Z,96466.73
2019-05-30T11:20:58.691Z,96464.44
2019-05-30T11:22:02.178Z,96472.46
2019-05-30T11:23:06.652Z,96467.20
2019-05-30T11:24:10.155Z,96466.44
2019-05-30T11:25:14.264Z,96463.99
2019-05-30T11:26:17.870Z,96470.42
2019-05-30T11:27:21.985Z,96461.42
2019-05-30T11:28:25.491Z,96469.75
2019-05-30T11:29:29.592Z,96467.83
2019-05-30T11:30:33.196Z,96471.24
2019-05-30T11:31:37.255Z,96468.17
2019-05-30T11:32:40.750Z,96466.90
2019-05-30T11:33:44.924Z,96467.96
2019-05-30T11:34:49.007Z,96471.84
2019-05-30T11:35:53.464Z,96467.53
2019-05-30T11:36:57.286Z,96465.80
2019-05-30T11:38:01.495Z,96463.63
2019-05-30T11:39:06.680Z,96461.64
2019-05-30T11:40:11.236Z,96461.19
2019-05-30T11:41:14.816Z,96466.27
2019-05-30T11:42:18.878Z,96461.23
2019-05-30T11:43:22.474Z,96466.02
2019-05-30T11:44:26.596Z,96466.03
2019-05-30T11:45:30.273Z,96451.59
2019-05-30T11:46:34.396Z,96450.67
2019-05-30T11:47:37.921Z,96447.83
2019-05-30T11:48:41.936Z,96448.29
2019-05-30T11:49:45.447Z,96449.59
2019-05-30T11:50:50.766Z,96453.33
2019-05-30T11:51:55.793Z,96439.45
2019-05-30T11:53:00.254Z,96440.12
2019-05-30T11:54:03.758Z,96442.31
2019-05-30T11:55:08.636Z,96440.75
2019-05-30T11:56:12.215Z,96444.84
2019-05-30T11:57:16.407Z,96435.72
2019-05-30T11:58:20.178Z,96433.06
2019-05-30T11:59:24.282Z,96428.08
2019-05-30T12:00:27.980Z,96427.03
2019-05-30T12:01:32.185Z,96429.58
2019-05-30T12:02:35.785Z,96425.48
2019-05-30T12:03:39.880Z,96422.59
2019-05-30T12:04:43.329Z,96429.82
2019-05-30T12:05:47.513Z,96426.05
2019-05-30T12:06:51.843Z,96419.47
2019-05-30T12:07:57.145Z,96416.99
2019-05-30T12:09:01.158Z,96418.61
2019-05-30T12:10:07.601Z,96420.58
2019-05-30T12:11:11.215Z,96418.44
2019-05-30T12:12:15.394Z,96416.09
2019-05-30T12:13:19.067Z,96415.16
2019-05-30T12:14:23.211Z,96414.47
2019-05-30T12:15:27.039Z,96412.75
2019-05-30T12:16:31.543Z,96413.90
2019-05-30T12:17:35.264Z,96420.98
2019-05-30T12:18:39.697Z,96413.52
2019-05-30T12:19:43.176Z,96409.06
2019-05-30T12:20:47.407Z,96412.95
2019-05-30T12:21:51.523Z,96416.08
2019-05-30T12:22:55.934Z,96415.30
2019-05-30T12:24:00.311Z,96413.16
2019-05-30T12:25:08.172Z,96414.33
2019-05-30T12:26:11.871Z,96411.59
2019-05-30T12:27:15.840Z,96415.97
2019-05-30T12:28:19.652Z,96412.95
2019-05-30T12:29:23.817Z,96416.48
2019-05-30T12:30:27.585Z,96414.70
2019-05-30T12:31:31.694Z,96416.25
2019-05-30T12:32:35.336Z,96415.97
2019-05-30T12:33:39.497Z,96412.98
2019-05-30T12:34:43.101Z,96414.00
2019-05-30T12:35:47.285Z,96416.89
2019-05-30T12:36:52.237Z,96421.63
2019-05-30T12:38:01.389Z,96415.12